createdAt,value
2022-12-18T00:01:59.762Z,-8.43
2022-12-18T00:07:03.894Z,-8.46
2022-12-18T00:17:20.007Z,-8.50
2022-12-18T00:22:22.915Z,-8.51
2022-12-18T00:27:25.793Z,-8.51
2022-12-18T00:32:30.053Z,-8.59
2022-12-18T00:37:32.921Z,-8.70
2022-12-18T00:42:54.427Z,-8.62
2022-12-18T00:47:59.394Z,-8.61
2022-12-18T00:53:02.133Z,-8.62
2022-12-18T00:58:05.001Z,-8.65
2022-12-18T01:03:09.473Z,-8.65
2022-12-18T01:08:13.298Z,-8.73
2022-12-18T01:13:19.222Z,-8.70
2022-12-18T01:18:26.298Z,-8.72
2022-12-18T01:23:29.181Z,-8.76
2022-12-18T01:28:32.112Z,-8.67
2022-12-18T01:33:36.774Z,-8.71
2022-12-18T01:38:39.967Z,-8.76
2022-12-18T01:43:49.806Z,-8.79
2022-12-18T01:48:57.502Z,-8.79
2022-12-18T01:54:01.363Z,-8.77
2022-12-18T01:59:08.281Z,-8.81
2022-12-18T02:04:23.789Z,-8.87
2022-12-18T02:09:33.150Z,-8.92
2022-12-18T02:14:42.707Z,-9.01
2022-12-18T02:20:04.340Z,-9.01
2022-12-18T02:25:23.905Z,-9.09
2022-12-18T02:30:31.083Z,-9.14
2022-12-18T02:35:36.311Z,-9.10
2022-12-18T02:40:41.668Z,-9.10
2022-12-18T02:45:50.465Z,-9.12
2022-12-18T02:51:01.601Z,-9.15
2022-12-18T02:56:10.433Z,-9.11
2022-12-18T03:01:21.666Z,-9.17
2022-12-18T03:06:28.081Z,-9.29
2022-12-18T03:11:53.089Z,-9.28
2022-12-18T03:17:01.219Z,-9.32
2022-12-18T03:22:07.086Z,-9.38
2022-12-18T03:27:22.016Z,-9.39
2022-12-18T03:32:33.440Z,-9.33
2022-12-18T03:37:37.034Z,-9.39
2022-12-18T03:42:48.759Z,-9.41
2022-12-18T03:48:07.397Z,-9.41
2022-12-18T03:53:25.119Z,-9.43
2022-12-18T03:58:30.978Z,-9.48
2022-12-18T04:03:50.215Z,-9.50
2022-12-18T04:08:55.786Z,-9.54
2022-12-18T04:14:05.868Z,-9.60
2022-12-18T04:19:11.752Z,-9.59
2022-12-18T04:24:18.101Z,-9.61
2022-12-18T04:29:30.558Z,-9.59
2022-12-18T04:34:34.961Z,-9.63
2022-12-18T04:39:37.808Z,-9.64
2022-12-18T04:44:46.083Z,-9.66
2022-12-18T04:49:50.238Z,-9.71
2022-12-18T04:54:52.998Z,-9.76
2022-12-18T04:59:55.765Z,-9.84
2022-12-18T05:04:59.851Z,-9.84
2022-12-18T05:10:02.561Z,-9.91
2022-12-18T05:15:06.297Z,-9.98
2022-12-18T05:20:11.826Z,-10.00
2022-12-18T05:25:14.716Z,-10.02
2022-12-18T05:43:20.805Z,-10.16
2022-12-18T05:48:24.337Z,-10.17
2022-12-18T05:53:27.241Z,-10.19
2022-12-18T05:58:32.299Z,-10.23
2022-12-18T06:03:35.166Z,-10.30
2022-12-18T06:08:41.531Z,-10.33
2022-12-18T06:13:57.652Z,-10.48
2022-12-18T06:19:02.797Z,-10.47
2022-12-18T06:24:05.970Z,-10.53
2022-12-18T06:29:10.382Z,-10.61
2022-12-18T06:34:13.289Z,-10.59
2022-12-18T06:39:16.117Z,-10.62
2022-12-18T06:44:20.503Z,-10.56
2022-12-18T06:49:27.352Z,-10.53
2022-12-18T06:54:33.034Z,-10.55
2022-12-18T06:59:37.261Z,-10.54
2022-12-18T07:04:40.106Z,-10.50
2022-12-18T07:09:42.825Z,-10.45
2022-12-18T07:14:47.136Z,-10.35
2022-12-18T07:19:50.245Z,-10.46
2022-12-18T07:24:52.992Z,-10.43
2022-12-18T07:29:57.222Z,-10.35
2022-12-18T07:34:59.971Z,-10.27
2022-12-18T07:40:03.022Z,-10.28
2022-12-18T07:45:08.621Z,-10.28
2022-12-18T07:50:11.721Z,-10.13
2022-12-18T07:55:14.578Z,-9.92
2022-12-18T08:00:19.461Z,-9.82
2022-12-18T08:05:24.514Z,-9.55
2022-12-18T08:10:27.396Z,-9.40
2022-12-18T08:15:31.780Z,-9.28
2022-12-18T08:20:34.630Z,-8.98
2022-12-18T08:25:37.410Z,-8.68
2022-12-18T08:30:41.565Z,-8.35
2022-12-18T08:35:46.182Z,-8.06
2022-12-18T08:40:49.102Z,-7.72
2022-12-18T08:45:53.332Z,-7.41
2022-12-18T08:50:57.273Z,-7.13
2022-12-18T08:56:00.099Z,-6.84
2022-12-18T09:01:06.173Z,-6.57
2022-12-18T09:06:09.296Z,-6.28
2022-12-18T09:11:15.714Z,-6.07
2022-12-18T09:16:20.651Z,-5.68
2022-12-18T09:21:23.625Z,-5.34
2022-12-18T09:26:27.580Z,-5.06
2022-12-18T09:31:31.925Z,-4.83
2022-12-18T09:36:34.728Z,-4.71
2022-12-18T09:41:45.034Z,-4.68
2022-12-18T09:46:54.484Z,-4.72
2022-12-18T09:52:02.626Z,-4.60
2022-12-18T09:57:06.396Z,-4.16
2022-12-18T10:02:23.470Z,-3.99
2022-12-18T10:07:36.174Z,-4.00
2022-12-18T10:12:48.901Z,-3.95
2022-12-18T10:18:00.378Z,-3.61
2022-12-18T10:23:11.390Z,-3.61
2022-12-18T10:28:16.995Z,-3.90
2022-12-18T10:33:23.383Z,-3.67
2022-12-18T10:38:28.717Z,-3.66
2022-12-18T10:43:33.162Z,-3.74
2022-12-18T10:48:42.133Z,-3.50
2022-12-18T10:53:55.530Z,-3.57
2022-12-18T10:59:03.416Z,-3.28
2022-12-18T11:04:11.493Z,-3.18
2022-12-18T11:09:22.911Z,-2.75
2022-12-18T11:14:28.009Z,-2.83
2022-12-18T11:19:36.556Z,-2.96
2022-12-18T11:24:39.370Z,-2.86
2022-12-18T11:29:46.636Z,-2.64
2022-12-18T11:34:59.176Z,-2.42
2022-12-18T11:40:08.269Z,-2.72
2022-12-18T11:45:26.800Z,-2.62
2022-12-18T11:50:40.184Z,-2.49
2022-12-18T11:55:51.774Z,-2.63
2022-12-18T12:01:02.315Z,-2.61
2022-12-18T12:06:18.670Z,-3.08
2022-12-18T12:11:30.513Z,-2.83
2022-12-18T12:16:40.806Z,-2.83
2022-12-18T12:21:53.383Z,-2.93
2022-12-18T12:27:07.109Z,-2.78
2022-12-18T12:32:24.713Z,-2.77
2022-12-18T12:37:42.991Z,-3.26
2022-12-18T12:43:07.528Z,-3.14
2022-12-18T12:48:19.514Z,-3.11
2022-12-18T12:53:31.090Z,-3.07
2022-12-18T12:58:39.815Z,-3.14
2022-12-18T13:03:51.042Z,-3.35
2022-12-18T13:08:58.152Z,-3.56
2022-12-18T13:14:00.885Z,-3.38
2022-12-18T13:19:05.720Z,-3.57
2022-12-18T13:24:26.791Z,-3.67
2022-12-18T13:29:45.959Z,-3.63
2022-12-18T13:34:48.896Z,-3.55
2022-12-18T13:39:53.235Z,-3.62
2022-12-18T13:44:56.097Z,-3.69
2022-12-18T13:49:59.568Z,-3.85
2022-12-18T13:55:07.573Z,-4.01
2022-12-18T14:00:29.531Z,-3.90
2022-12-18T14:05:40.188Z,-3.98
2022-12-18T14:10:50.205Z,-4.06
2022-12-18T14:15:53.564Z,-4.21
2022-12-18T14:21:02.526Z,-4.44
2022-12-18T14:26:24.743Z,-4.56
2022-12-18T14:31:29.877Z,-4.47
2022-12-18T14:36:33.209Z,-4.76
2022-12-18T14:41:37.308Z,-4.76
2022-12-18T14:46:42.597Z,-4.84
2022-12-18T14:51:50.382Z,-4.82
2022-12-18T14:57:01.913Z,-4.93
2022-12-18T15:02:12.262Z,-4.98
2022-12-18T15:07:18.120Z,-5.04
2022-12-18T15:12:31.025Z,-5.11
2022-12-18T15:17:33.858Z,-5.11
2022-12-18T15:22:38.229Z,-5.18
2022-12-18T15:27:49.274Z,-5.21
2022-12-18T15:32:53.758Z,-5.26
2022-12-18T15:37:56.656Z,-5.27
2022-12-18T15:43:18.370Z,-5.38
2022-12-18T15:48:24.612Z,-5.40
2022-12-18T15:53:31.118Z,-5.40
2022-12-18T15:58:35.375Z,-5.44
2022-12-18T16:03:38.808Z,-5.47
2022-12-18T16:08:42.028Z,-5.45
2022-12-18T16:13:46.310Z,-5.45
2022-12-18T16:18:49.013Z,-5.55
2022-12-18T16:23:51.884Z,-5.53
2022-12-18T16:28:56.064Z,-5.56
2022-12-18T16:34:22.970Z,-5.57
2022-12-18T16:39:28.290Z,-5.61
2022-12-18T16:44:32.366Z,-5.51
2022-12-18T16:49:35.257Z,-5.58
2022-12-18T16:54:38.316Z,-5.57
2022-12-18T16:59:43.261Z,-5.69
2022-12-18T17:04:47.674Z,-5.60
2022-12-18T17:09:51.544Z,-5.62
2022-12-18T17:14:56.360Z,-5.60
2022-12-18T17:19:59.204Z,-5.60
2022-12-18T17:25:02.039Z,-5.57
2022-12-18T17:30:07.808Z,-5.53
2022-12-18T17:35:11.664Z,-5.50
2022-12-18T17:40:15.409Z,-5.48
2022-12-18T17:45:19.978Z,-5.43
2022-12-18T17:50:22.733Z,-5.38
2022-12-18T17:55:25.854Z,-5.35
2022-12-18T18:00:30.105Z,-5.31
2022-12-18T18:05:35.616Z,-5.28
2022-12-18T18:10:39.197Z,-5.25
2022-12-18T18:15:43.490Z,-5.23
2022-12-18T18:20:46.292Z,-5.20
2022-12-18T18:25:49.287Z,-5.20
2022-12-18T18:30:54.532Z,-5.18
2022-12-18T18:35:57.389Z,-5.15
2022-12-18T18:41:00.942Z,-5.14
2022-12-18T18:46:06.781Z,-5.09
2022-12-18T18:51:12.504Z,-5.06
2022-12-18T18:56:56.164Z,-5.05
2022-12-18T19:01:44.280Z,-5.02
2022-12-18T19:06:49.001Z,-4.99
2022-12-18T19:12:09.805Z,-4.96
2022-12-18T19:17:14.038Z,-4.88
2022-12-18T19:22:17.012Z,-4.84
2022-12-18T19:27:19.846Z,-4.80
2022-12-18T19:32:24.148Z,-4.75
2022-12-18T19:37:27.018Z,-4.69
2022-12-18T19:42:35.292Z,-4.66
2022-12-18T19:47:39.914Z,-4.62
2022-12-18T19:52:42.707Z,-4.60
2022-12-18T19:57:45.765Z,-4.56
2022-12-18T20:02:50.848Z,-4.47
2022-12-18T20:07:53.827Z,-4.44
2022-12-18T20:12:56.686Z,-4.44
2022-12-18T20:18:02.060Z,-4.40
2022-12-18T20:23:06.549Z,-4.39
2022-12-18T20:28:09.375Z,-4.38
2022-12-18T20:33:13.551Z,-4.40
2022-12-18T20:38:16.354Z,-4.33
2022-12-18T20:43:20.661Z,-4.27
2022-12-18T20:48:26.753Z,-4.26
2022-12-18T20:53:29.921Z,-4.20
2022-12-18T20:58:32.849Z,-4.18
2022-12-18T21:03:37.225Z,-4.11
2022-12-18T21:08:40.253Z,-4.06
2022-12-18T21:13:43.069Z,-4.11
2022-12-18T21:18:47.253Z,-4.05
2022-12-18T21:23:50.019Z,-4.06
2022-12-18T21:28:55.609Z,-4.00
2022-12-18T21:34:02.001Z,-3.98
2022-12-18T21:39:05.736Z,-3.96
2022-12-18T21:44:09.595Z,-3.89
2022-12-18T21:49:17.272Z,-3.87
2022-12-18T21:54:20.710Z,-3.84
2022-12-18T21:59:25.664Z,-3.82
2022-12-18T22:04:30.560Z,-3.79
2022-12-18T22:09:34.358Z,-3.76
2022-12-18T22:14:37.303Z,-3.76
2022-12-18T22:19:43.466Z,-3.73
2022-12-18T22:24:46.417Z,-3.69
2022-12-18T22:30:07.193Z,-3.66
2022-12-18T22:35:15.808Z,-3.62
2022-12-18T22:40:25.497Z,-3.61
2022-12-18T22:45:28.869Z,-3.57
2022-12-18T22:50:33.708Z,-3.57
2022-12-18T22:55:36.622Z,-3.52
2022-12-18T23:00:39.599Z,-3.47
2022-12-18T23:05:43.850Z,-3.53
2022-12-18T23:10:46.775Z,-3.51
2022-12-18T23:15:49.610Z,-3.48
2022-12-18T23:20:53.801Z,-3.45
2022-12-18T23:26:02.078Z,-3.44
2022-12-18T23:31:06.781Z,-3.40
2022-12-18T23:36:11.676Z,-3.37
2022-12-18T23:41:16.706Z,-3.37
2022-12-18T23:46:21.404Z,-3.32
2022-12-18T23:51:25.724Z,-3.27
2022-12-18T23:56:29.934Z,-3.24
